This is the latest recevied weather packets stored in our database for station/object HB9DDE-10. If no packets are shown the sender has not sent any weather packets the latest 10 day(s).
| Time | Temp. | Humidity | Pressure | Rain* | Wind** | Luminosity | Snow |
|---|---|---|---|---|---|---|---|
| 1777654115 | 25.56° C | 30% | 1022.8 hPa | 0 mm | - | - | - |
| 1777653825 | 25° C | 29% | 1022.9 hPa | 0 mm | - | - | - |
| 1777653520 | 26.11° C | 28% | 1022.9 hPa | 0 mm | - | - | - |
| 1777653229 | 26.11° C | 29% | 1022.9 hPa | 0 mm | - | - | - |
| 1777652919 | 25.56° C | 29% | 1022.9 hPa | 0 mm | - | - | - |
| 1777652629 | 25.56° C | 29% | 1023 hPa | 0 mm | - | - | - |
| 1777652319 | 25° C | 29% | 1023 hPa | 0 mm | - | - | - |
| 1777652029 | 25.56° C | 28% | 1023 hPa | 0 mm | - | - | - |
| 1777651719 | 26.11° C | 27% | 1023 hPa | 0 mm | - | - | - |
| 1777651429 | 26.11° C | 27% | 1023 hPa | 0 mm | - | - | - |
| 1777651123 | 25.56° C | 29% | 1023 hPa | 0 mm | - | - | - |
| 1777650813 | 25° C | 31% | 1023 hPa | 0 mm | - | - | - |
| 1777650523 | 25.56° C | 28% | 1023 hPa | 0 mm | - | - | - |
| 1777650214 | 26.11° C | 28% | 1023.1 hPa | 0 mm | - | - | - |
| 1777648726 | 26.11° C | 28% | 1023.3 hPa | 0 mm | - | - | - |
| 1777648420 | 26.11° C | 27% | 1023.3 hPa | 0 mm | - | - | - |
| 1777648129 | 25.56° C | 28% | 1023.3 hPa | 0 mm | - | - | - |
| 1777647819 | 25.56° C | 28% | 1023.3 hPa | 0 mm | - | - | - |
| 1777647529 | 26.11° C | 27% | 1023.3 hPa | 0 mm | - | - | - |
| 1777647219 | 26.11° C | 29% | 1023.4 hPa | 0 mm | - | - | - |
| 1777646928 | 25.56° C | 29% | 1023.5 hPa | 0 mm | - | - | - |
| 1777646617 | 26.67° C | 27% | 1023.4 hPa | 0 mm | - | - | - |
| 1777646327 | 26.67° C | 27% | 1023.5 hPa | 0 mm | - | - | - |
| 1777646020 | 26.11° C | 29% | 1023.6 hPa | 0 mm | - | - | - |
| 1777645728 | 25° C | 31% | 1023.6 hPa | 0 mm | - | - | - |
* Rain latest hour (hover to see other rain measurements)
** Current wind speed in m/s (hover to see current wind gust speed)